»·PEaware :: LXJ223 KASE-KMAF

LXJ223 :: KASE-KMAF

FLIGHT INFORMATION

Flight Status: Arrived
Operator: Unknown
More flights by this operator :: More flights under this callsign
Pilot: Anonymous 5456 (5456)
Aircraft: BOMBARDIER BD-100 CHALLENGER 300
(CL30)
More flights by this aircraft type
Origin: KASE Aspen-Pitkin Co/Sardy
United States
Destination: KMAF Midland Intl
United States
More flights between these airports :: More routes between these airports
Route: +ASPE7 ALS
File this flight plan on PilotEdge
Remarks:
Altitude:
(Current/Filed)
39,000ft
Speed:
(Current/Filed)
480kts
Departed: 12-Feb-17 03:10 PM
Arrived: 12-Feb-17 04:28 PM
Distance/Time
Traveled:
492nm/1:18
Distance/Time
To Go:
Arrived

Flight Plot

Page will automatically refresh every two minutes.

Flight plan parsing failed; only flown route is shown


Map Options




Map Legend


Flown Route
Filed Route
Departure Airport
Arrival Airport
Navaid (VOR, NDB)
Fix

Horizontal Profiles

Position Reports

Time Latitude Longitude Heading Altitude Ground
Speed
12-Feb-17 15:00 39.218535 -106.864205 248 7825ft 0kts
12-Feb-17 15:01 39.218535 -106.864205 248 7825ft 0kts
12-Feb-17 15:02 39.218535 -106.864205 248 7825ft 0kts
12-Feb-17 15:03 39.218535 -106.864205 248 7825ft 0kts
12-Feb-17 15:04 39.218535 -106.864205 248 7825ft 0kts
12-Feb-17 15:05 39.218535 -106.864205 248 7825ft 0kts
12-Feb-17 15:06 39.218535 -106.864205 248 7825ft 0kts
12-Feb-17 15:07 39.217797 -106.865087 160 7825ft 7kts
12-Feb-17 15:08 39.215476 -106.864015 159 7825ft 21kts
12-Feb-17 15:09 39.212418 -106.862744 231 7825ft 0kts
12-Feb-17 15:10 39.218978 -106.866874 339 7825ft 127kts
12-Feb-17 15:11 39.268889 -106.891924 1 10446ft 236kts
12-Feb-17 15:12 39.333734 -106.895333 356 13474ft 286kts
12-Feb-17 15:13 39.430527 -106.901901 356 16204ft 380kts
12-Feb-17 15:14 39.536063 -106.907812 355 21347ft 374kts
12-Feb-17 15:15 39.628651 -106.957660 296 22350ft 385kts
12-Feb-17 15:16 39.588006 -107.069753 201 24022ft 391kts
12-Feb-17 15:17 39.479202 -107.023405 155 25304ft 469kts
12-Feb-17 15:18 39.363985 -106.951790 157 27624ft 447kts
12-Feb-17 15:19 39.254299 -106.887323 158 31566ft 428kts
12-Feb-17 15:20 39.150880 -106.827339 159 35507ft 389kts
12-Feb-17 15:21 39.059784 -106.774803 159 38565ft 348kts
12-Feb-17 15:22 38.970133 -106.723386 159 39340ft 376kts
12-Feb-17 15:23 38.868429 -106.665165 158 39331ft 434kts
12-Feb-17 15:24 38.751870 -106.598584 158 39376ft 489kts
12-Feb-17 15:25 38.623234 -106.525372 157 39405ft 526kts
12-Feb-17 15:26 38.491593 -106.450744 157 39403ft 524kts
12-Feb-17 15:27 38.361112 -106.377090 158 39427ft 513kts
12-Feb-17 15:28 38.235638 -106.305844 158 39480ft 514kts
12-Feb-17 15:29 38.105217 -106.232407 158 39388ft 514kts
12-Feb-17 15:30 37.975003 -106.159713 158 39376ft 513kts
12-Feb-17 15:31 37.845998 -106.088023 158 39368ft 513kts
12-Feb-17 15:32 37.715916 -106.016020 158 39345ft 514kts
12-Feb-17 15:33 37.585543 -105.944135 158 39345ft 513kts
12-Feb-17 15:34 37.455091 -105.872481 158 39346ft 513kts
12-Feb-17 15:35 37.329136 -105.799345 151 39349ft 502kts
12-Feb-17 15:36 37.207847 -105.713587 150 39349ft 504kts
12-Feb-17 15:37 37.085483 -105.626057 150 39349ft 506kts
12-Feb-17 15:38 36.964573 -105.539587 150 39402ft 504kts
12-Feb-17 15:39 36.845549 -105.454776 150 39399ft 505kts
12-Feb-17 15:40 36.723628 -105.368216 150 39425ft 505kts
12-Feb-17 15:41 36.602934 -105.281996 151 39424ft 505kts
12-Feb-17 15:42 36.481323 -105.196010 151 39425ft 505kts
12-Feb-17 15:43 36.359430 -105.110377 151 39427ft 505kts
12-Feb-17 15:44 36.237524 -105.025082 151 39428ft 506kts
12-Feb-17 15:45 36.115416 -104.939957 151 39429ft 506kts
12-Feb-17 15:46 35.993115 -104.854881 152 39426ft 512kts
12-Feb-17 15:47 35.871183 -104.770634 151 39424ft 506kts
12-Feb-17 15:48 35.748805 -104.686223 151 39426ft 507kts
12-Feb-17 15:49 35.626572 -104.602219 151 39427ft 507kts
12-Feb-17 15:50 35.503463 -104.517916 151 39429ft 507kts
12-Feb-17 15:51 35.380946 -104.434316 151 39430ft 507kts
12-Feb-17 15:52 35.258157 -104.350817 151 39432ft 508kts
12-Feb-17 15:53 35.135816 -104.267034 152 39427ft 508kts
12-Feb-17 15:54 35.012890 -104.183844 152 39429ft 508kts
12-Feb-17 15:55 34.890559 -104.101492 152 39427ft 508kts
12-Feb-17 15:56 34.767490 -104.018986 152 39423ft 508kts
12-Feb-17 15:57 34.643896 -103.936370 152 39425ft 509kts
12-Feb-17 15:58 34.521181 -103.854637 152 39401ft 509kts
12-Feb-17 15:59 34.397080 -103.772263 152 39401ft 509kts
12-Feb-17 16:00 34.273552 -103.690553 152 39403ft 509kts
12-Feb-17 16:01 34.149693 -103.608923 152 39404ft 510kts
12-Feb-17 16:02 34.025578 -103.527350 152 39406ft 510kts
12-Feb-17 16:03 33.901615 -103.446175 152 39408ft 510kts
12-Feb-17 16:04 33.777300 -103.365022 152 37801ft 520kts
12-Feb-17 16:05 33.651673 -103.282572 152 35531ft 514kts
12-Feb-17 16:06 33.528625 -103.202566 152 33306ft 496kts
12-Feb-17 16:07 33.409968 -103.125838 152 31103ft 479kts
12-Feb-17 16:08 33.294227 -103.051278 152 28700ft 476kts
12-Feb-17 16:09 33.179228 -102.977397 152 26232ft 469kts
12-Feb-17 16:10 33.062122 -102.915878 159 23755ft 455kts
12-Feb-17 16:11 32.946872 -102.860503 159 21284ft 439kts
12-Feb-17 16:12 32.837168 -102.807848 159 18806ft 420kts
12-Feb-17 16:13 32.732247 -102.757253 159 16310ft 401kts
12-Feb-17 16:14 32.632499 -102.707079 159 13824ft 380kts
12-Feb-17 16:15 32.541624 -102.660629 159 11739ft 330kts
12-Feb-17 16:16 32.462076 -102.619118 159 9945ft 304kts
12-Feb-17 16:17 32.385256 -102.581671 159 8166ft 291kts
12-Feb-17 16:18 32.312907 -102.549492 159 6355ft 267kts
12-Feb-17 16:19 32.246623 -102.520000 159 4995ft 231kts
12-Feb-17 16:20 32.190192 -102.494884 159 4971ft 214kts
12-Feb-17 16:21 32.134466 -102.470076 159 4970ft 215kts
12-Feb-17 16:22 32.078647 -102.445222 159 4970ft 215kts
12-Feb-17 16:23 32.023951 -102.418450 134 4948ft 214kts
12-Feb-17 16:24 31.999465 -102.355811 106 4944ft 207kts
12-Feb-17 16:25 31.976492 -102.293842 108 4310ft 206kts
12-Feb-17 16:26 31.956950 -102.241680 103 3349ft 124kts
12-Feb-17 16:27 31.946003 -102.207554 111 2878ft 78kts
12-Feb-17 16:28 31.942831 -102.206008 249 2878ft 15kts
12-Feb-17 16:29 31.943012 -102.209917 223 2878ft 2kts

Navigation Log

Ident Type
Flight plan parsing failed, navigation log unavailable